Time;durP1;ratioP1;P1;durP2;ratioP2;P2;SDS_P1;SDS_P2;PMS_P1;PMS_P2;Temp;Humidity;BMP_temperature;BMP_pressure;BME280_temperature;BME280_humidity;BME280_pressure;Samples;Min_cycle;Max_cycle;Signal;HPM_P1;HPM_P2
2023/09/09 00:01:39;;;;;;;18.27;9.33;;;;;;;;;;5059651;28;20025;-46
2023/09/09 00:04:04;;;;;;;17.90;9.00;;;;;;;;;;5062442;28;20054;-46
2023/09/09 00:06:29;;;;;;;16.70;10.15;;;;;;;;;;5058999;28;20487;-46
2023/09/09 00:08:54;;;;;;;14.73;9.43;;;;;;;;;;5061603;28;20021;-46
2023/09/09 00:11:20;;;;;;;8.57;5.53;;;;;;;;;;5061633;28;20028;-46
2023/09/09 00:13:48;;;;;;;14.30;9.25;;;;;;;;;;5055382;28;20027;-46
2023/09/09 00:16:13;;;;;;;15.65;8.95;;;;;;;;;;5060403;28;20028;-46
2023/09/09 00:18:39;;;;;;;17.10;9.60;;;;;;;;;;5065145;28;20031;-46
2023/09/09 00:21:05;;;;;;;16.63;9.23;;;;;;;;;;5059810;28;20070;-46
2023/09/09 00:23:30;;;;;;;15.80;9.38;;;;;;;;;;5061060;28;20275;-46
2023/09/09 00:25:55;;;;;;;18.17;10.07;;;;;;;;;;5062262;28;20685;-46
2023/09/09 00:28:21;;;;;;;16.43;9.40;;;;;;;;;;5062625;28;20490;-46
2023/09/09 00:30:46;;;;;;;19.65;9.43;;;;;;;;;;5061740;28;20089;-46
2023/09/09 00:33:12;;;;;;;15.27;9.87;;;;;;;;;;5060091;28;20021;-46
2023/09/09 00:35:38;;;;;;;14.00;9.40;;;;;;;;;;5059384;28;20020;-46
2023/09/09 00:38:04;;;;;;;14.07;9.25;;;;;;;;;;5055856;28;20106;-46
2023/09/09 00:40:29;;;;;;;15.95;9.07;;;;;;;;;;5061699;28;20620;-46
2023/09/09 00:42:54;;;;;;;13.40;8.87;;;;;;;;;;5058758;28;20032;-45
2023/09/09 00:45:20;;;;;;;16.70;9.60;;;;;;;;;;5057764;28;20048;-46
2023/09/09 00:47:45;;;;;;;13.60;9.43;;;;;;;;;;5059398;28;20017;-46
2023/09/09 00:50:12;;;;;;;17.47;8.80;;;;;;;;;;5057445;28;20033;-46
2023/09/09 00:52:41;;;;;;;16.13;9.13;;;;;;;;;;5056005;28;21036;-46
2023/09/09 00:55:06;;;;;;;17.30;9.07;;;;;;;;;;5060959;28;20025;-46
2023/09/09 00:57:32;;;;;;;15.77;8.85;;;;;;;;;;5055047;28;20032;-46
2023/09/09 00:59:58;;;;;;;11.80;8.50;;;;;;;;;;5053824;28;20032;-46
2023/09/09 01:02:23;;;;;;;17.87;9.37;;;;;;;;;;5061451;28;20116;-46
2023/09/09 01:04:49;;;;;;;13.57;9.17;;;;;;;;;;5056349;28;20287;-46
2023/09/09 01:07:14;;;;;;;21.33;9.25;;;;;;;;;;5057600;28;20313;-46
2023/09/09 01:09:40;;;;;;;14.53;9.60;;;;;;;;;;5058659;28;20083;-46
2023/09/09 01:12:07;;;;;;;17.88;9.95;;;;;;;;;;5056738;28;20027;-46
2023/09/09 01:14:32;;;;;;;13.00;9.13;;;;;;;;;;5055079;28;20025;-46
2023/09/09 01:16:58;;;;;;;14.10;9.43;;;;;;;;;;5059322;28;20035;-46
2023/09/09 01:19:25;;;;;;;14.27;9.38;;;;;;;;;;5056567;28;20638;-46
2023/09/09 01:21:51;;;;;;;16.45;9.95;;;;;;;;;;5059246;28;20149;-46
2023/09/09 01:24:16;;;;;;;14.45;9.77;;;;;;;;;;5055304;28;20021;-46
2023/09/09 01:26:45;;;;;;;14.73;9.97;;;;;;;;;;5051887;28;20552;-46
2023/09/09 01:29:10;;;;;;;21.40;10.60;;;;;;;;;;5056747;28;20700;-46
2023/09/09 01:31:35;;;;;;;16.17;9.80;;;;;;;;;;5054080;28;20031;-46
2023/09/09 01:34:00;;;;;;;15.98;9.43;;;;;;;;;;5051350;28;20279;-46
2023/09/09 01:36:26;;;;;;;14.38;9.52;;;;;;;;;;5053817;28;20447;-46
2023/09/09 01:38:51;;;;;;;13.17;8.90;;;;;;;;;;5052557;28;20502;-46
2023/09/09 01:41:16;;;;;;;15.57;9.20;;;;;;;;;;5053334;28;20086;-46
2023/09/09 01:43:41;;;;;;;16.37;9.70;;;;;;;;;;5052843;28;20028;-46
2023/09/09 01:46:07;;;;;;;13.73;8.80;;;;;;;;;;5056493;28;20035;-46
2023/09/09 01:48:32;;;;;;;16.10;9.23;;;;;;;;;;5055650;28;20049;-46
2023/09/09 01:50:57;;;;;;;14.10;9.57;;;;;;;;;;5055617;28;20798;-46
2023/09/09 01:53:22;;;;;;;16.85;9.73;;;;;;;;;;5059123;28;20033;-46
2023/09/09 01:55:48;;;;;;;15.53;10.13;;;;;;;;;;5054042;28;20021;-46
2023/09/09 01:58:15;;;;;;;10.30;5.88;;;;;;;;;;5054465;28;20033;-46
2023/09/09 02:00:41;;;;;;;16.15;9.23;;;;;;;;;;5063198;28;20104;-46
2023/09/09 02:03:06;;;;;;;14.77;8.82;;;;;;;;;;5056876;28;20115;-46
2023/09/09 02:05:31;;;;;;;14.75;9.27;;;;;;;;;;5055980;28;20036;-46
2023/09/09 02:07:56;;;;;;;18.10;10.10;;;;;;;;;;5061720;28;20376;-46
2023/09/09 02:10:22;;;;;;;17.03;9.43;;;;;;;;;;5059065;28;20028;-46
2023/09/09 02:12:47;;;;;;;11.90;8.70;;;;;;;;;;5051753;28;20031;-46
2023/09/09 02:15:13;;;;;;;13.45;8.88;;;;;;;;;;5056398;28;20028;-46
2023/09/09 02:17:38;;;;;;;11.82;8.70;;;;;;;;;;5059578;28;20033;-46
2023/09/09 02:20:07;;;;;;;17.53;8.53;;;;;;;;;;5061627;28;20040;-46
2023/09/09 02:22:32;;;;;;;13.10;8.88;;;;;;;;;;5058321;28;20112;-46
2023/09/09 02:24:57;;;;;;;13.63;8.70;;;;;;;;;;5072056;28;20120;-46
2023/09/09 02:27:23;;;;;;;13.97;9.37;;;;;;;;;;5064884;28;20404;-46
2023/09/09 02:29:49;;;;;;;15.70;9.45;;;;;;;;;;5058498;28;20287;-46
2023/09/09 02:32:14;;;;;;;13.98;9.20;;;;;;;;;;5068091;28;20016;-46
2023/09/09 02:34:39;;;;;;;15.23;9.35;;;;;;;;;;5062665;28;20372;-46
2023/09/09 02:37:18;;;;;;;14.47;8.73;;;;;;;;;;5059430;28;20021;-46
2023/09/09 02:39:47;;;;;;;15.35;9.52;;;;;;;;;;5052365;28;20309;-46
2023/09/09 02:42:13;;;;;;;15.68;9.32;;;;;;;;;;5065712;28;20023;-46
2023/09/09 02:44:38;;;;;;;17.02;9.15;;;;;;;;;;5059225;28;20037;-46
2023/09/09 02:47:03;;;;;;;13.05;8.93;;;;;;;;;;5056467;28;20021;-46
2023/09/09 02:49:29;;;;;;;14.00;8.80;;;;;;;;;;5065273;28;20038;-45
2023/09/09 02:51:54;;;;;;;20.50;10.13;;;;;;;;;;5054349;28;20441;-46
2023/09/09 02:54:19;;;;;;;15.13;9.57;;;;;;;;;;5062360;28;20120;-46
2023/09/09 02:56:44;;;;;;;16.27;9.53;;;;;;;;;;5062250;28;20025;-46
2023/09/09 02:59:10;;;;;;;15.83;9.00;;;;;;;;;;5054189;28;20047;-46
2023/09/09 03:01:35;;;;;;;12.53;8.80;;;;;;;;;;5059533;28;20537;-46
2023/09/09 03:04:00;;;;;;;19.25;10.30;;;;;;;;;;5064307;28;20036;-45
2023/09/09 03:06:25;;;;;;;15.90;8.73;;;;;;;;;;5071156;28;20025;-46
2023/09/09 03:08:51;;;;;;;15.60;8.50;;;;;;;;;;5060416;28;20056;-45
2023/09/09 03:11:16;;;;;;;14.63;9.33;;;;;;;;;;5065122;28;20306;-45
2023/09/09 03:13:42;;;;;;;16.37;10.63;;;;;;;;;;5064720;28;20017;-45
2023/09/09 03:16:07;;;;;;;8.27;5.18;;;;;;;;;;5064292;28;20524;-46
2023/09/09 03:18:32;;;;;;;15.07;9.50;;;;;;;;;;5056934;28;20490;-46
2023/09/09 03:20:58;;;;;;;13.93;9.00;;;;;;;;;;5057766;28;20043;-46
2023/09/09 03:23:23;;;;;;;13.97;9.87;;;;;;;;;;5060434;28;20036;-45
2023/09/09 03:25:48;;;;;;;14.43;8.40;;;;;;;;;;5062054;28;20012;-46
2023/09/09 03:28:13;;;;;;;15.75;9.70;;;;;;;;;;5064376;28;20313;-46
2023/09/09 03:30:58;;;;;;;16.07;9.03;;;;;;;;;;5063474;28;20025;-46
2023/09/09 03:33:23;;;;;;;14.40;9.05;;;;;;;;;;5061869;28;20274;-46
2023/09/09 03:35:49;;;;;;;16.67;9.90;;;;;;;;;;5052453;28;20025;-45
2023/09/09 03:38:14;;;;;;;20.75;9.43;;;;;;;;;;5061779;28;20427;-45
2023/09/09 03:40:39;;;;;;;18.00;9.35;;;;;;;;;;5061241;28;20017;-46
2023/09/09 03:43:05;;;;;;;14.60;9.43;;;;;;;;;;5058660;28;20482;-45
2023/09/09 03:45:30;;;;;;;12.40;8.25;;;;;;;;;;5062518;28;20033;-46
2023/09/09 03:47:56;;;;;;;16.53;9.63;;;;;;;;;;5063590;28;20021;-46
2023/09/09 03:50:21;;;;;;;13.23;8.82;;;;;;;;;;5061139;28;20933;-45
2023/09/09 03:52:47;;;;;;;16.00;9.80;;;;;;;;;;5054156;28;20590;-45
2023/09/09 03:55:12;;;;;;;15.52;8.45;;;;;;;;;;5061967;28;20045;-45
2023/09/09 03:57:37;;;;;;;14.82;8.07;;;;;;;;;;5059188;28;20025;-46
2023/09/09 04:00:03;;;;;;;13.23;8.95;;;;;;;;;;5064305;28;20020;-46
2023/09/09 04:02:28;;;;;;;14.48;9.70;;;;;;;;;;5059702;28;20024;-45
2023/09/09 04:04:53;;;;;;;15.30;9.07;;;;;;;;;;5058528;28;20107;-46
2023/09/09 04:07:19;;;;;;;12.47;8.60;;;;;;;;;;5062140;28;20649;-46
2023/09/09 04:09:44;;;;;;;14.32;9.85;;;;;;;;;;5057426;28;20282;-46
2023/09/09 04:12:09;;;;;;;13.07;9.15;;;;;;;;;;5047987;28;20025;-45
2023/09/09 04:14:39;;;;;;;13.40;9.07;;;;;;;;;;5056611;28;20036;-45
2023/09/09 04:17:04;;;;;;;13.18;8.45;;;;;;;;;;5063326;28;20031;-46
2023/09/09 04:19:29;;;;;;;16.08;9.93;;;;;;;;;;5052602;28;20033;-46
2023/09/09 04:21:55;;;;;;;14.30;10.02;;;;;;;;;;5055495;28;20041;-45
2023/09/09 04:24:20;;;;;;;10.93;5.47;;;;;;;;;;5059617;28;20094;-46
2023/09/09 04:26:45;;;;;;;14.63;9.77;;;;;;;;;;5059999;28;20267;-46
2023/09/09 04:29:11;;;;;;;15.98;9.02;;;;;;;;;;5058514;28;20043;-46
2023/09/09 04:31:36;;;;;;;14.50;9.83;;;;;;;;;;5059406;28;20033;-46
2023/09/09 04:34:01;;;;;;;15.53;9.73;;;;;;;;;;5059891;28;20937;-46
2023/09/09 04:36:26;;;;;;;14.13;8.20;;;;;;;;;;5057682;28;20094;-46
2023/09/09 04:38:52;;;;;;;16.17;9.07;;;;;;;;;;5057753;28;20021;-46
2023/09/09 04:41:17;;;;;;;8.75;6.05;;;;;;;;;;5060989;28;20508;-46
2023/09/09 04:43:43;;;;;;;17.03;10.17;;;;;;;;;;5052330;28;20033;-46
2023/09/09 04:46:08;;;;;;;15.13;8.90;;;;;;;;;;5056384;28;20049;-46
2023/09/09 04:48:34;;;;;;;14.23;9.57;;;;;;;;;;5051739;28;20717;-46
2023/09/09 04:50:59;;;;;;;24.33;12.83;;;;;;;;;;5055321;28;20021;-45
2023/09/09 04:53:25;;;;;;;21.00;14.80;;;;;;;;;;5051153;28;20289;-46
2023/09/09 04:55:50;;;;;;;19.30;11.45;;;;;;;;;;5063788;28;20097;-46
2023/09/09 04:58:15;;;;;;;17.55;10.35;;;;;;;;;;5067111;28;20023;-46
2023/09/09 05:00:41;;;;;;;19.03;10.40;;;;;;;;;;5059176;28;20033;-46
2023/09/09 05:03:06;;;;;;;16.70;10.97;;;;;;;;;;5059887;28;20032;-46
2023/09/09 05:05:31;;;;;;;15.50;10.67;;;;;;;;;;5056896;28;20467;-46
2023/09/09 05:07:56;;;;;;;17.47;10.93;;;;;;;;;;5056837;28;20302;-46
2023/09/09 05:10:24;;;;;;;17.90;10.03;;;;;;;;;;5058371;28;20311;-46
2023/09/09 05:12:49;;;;;;;15.27;9.70;;;;;;;;;;5061144;28;20028;-46
2023/09/09 05:15:15;;;;;;;13.17;9.47;;;;;;;;;;5050132;28;20395;-46
2023/09/09 05:17:40;;;;;;;17.85;11.07;;;;;;;;;;5055537;28;20036;-46
2023/09/09 05:20:06;;;;;;;20.07;9.93;;;;;;;;;;5056536;28;20028;-45
2023/09/09 05:22:31;;;;;;;21.70;13.20;;;;;;;;;;5057068;28;20609;-46
2023/09/09 05:24:56;;;;;;;20.63;13.23;;;;;;;;;;5052118;28;20029;-46
2023/09/09 05:27:22;;;;;;;19.07;10.20;;;;;;;;;;5048278;28;20274;-45
2023/09/09 05:29:47;;;;;;;16.87;10.10;;;;;;;;;;5056793;28;20036;-45
2023/09/09 05:32:12;;;;;;;14.70;9.53;;;;;;;;;;5060991;28;20074;-46
2023/09/09 05:34:38;;;;;;;15.23;9.73;;;;;;;;;;5054493;28;20119;-46
2023/09/09 05:37:03;;;;;;;17.10;9.87;;;;;;;;;;5055766;28;20490;-46
2023/09/09 05:39:28;;;;;;;18.90;9.88;;;;;;;;;;5056747;28;20358;-46
2023/09/09 05:41:54;;;;;;;13.73;9.50;;;;;;;;;;5059637;28;20028;-46
2023/09/09 05:44:19;;;;;;;14.50;9.40;;;;;;;;;;5047501;28;20283;-46
2023/09/09 05:46:44;;;;;;;18.57;9.43;;;;;;;;;;5046980;28;20031;-46
2023/09/09 05:49:09;;;;;;;15.30;10.07;;;;;;;;;;5057584;28;20111;-46
2023/09/09 05:51:35;;;;;;;11.20;6.03;;;;;;;;;;5053872;28;20284;-46
2023/09/09 05:54:01;;;;;;;15.60;10.33;;;;;;;;;;5060951;28;20396;-46
2023/09/09 05:56:26;;;;;;;15.55;9.60;;;;;;;;;;5066039;28;20294;-46
2023/09/09 05:58:52;;;;;;;15.07;9.05;;;;;;;;;;5063868;28;20391;-46
2023/09/09 06:01:17;;;;;;;29.13;17.83;;;;;;;;;;5056601;28;20430;-46
2023/09/09 06:03:43;;;;;;;19.53;13.67;;;;;;;;;;5061647;28;20019;-47
2023/09/09 06:06:08;;;;;;;19.35;11.00;;;;;;;;;;5056120;28;20056;-46
2023/09/09 06:08:33;;;;;;;15.13;9.97;;;;;;;;;;5054816;28;20036;-46
2023/09/09 06:10:58;;;;;;;17.77;9.63;;;;;;;;;;5064109;28;20765;-46
2023/09/09 06:13:24;;;;;;;14.90;10.03;;;;;;;;;;5065228;28;20305;-46
2023/09/09 06:15:49;;;;;;;17.63;9.83;;;;;;;;;;5063813;28;20313;-46
2023/09/09 06:18:14;;;;;;;14.93;9.73;;;;;;;;;;5052601;28;20035;-45
2023/09/09 06:20:45;;;;;;;15.00;9.13;;;;;;;;;;5052922;28;20278;-45
2023/09/09 06:23:10;;;;;;;18.48;10.73;;;;;;;;;;5056999;28;20272;-46
2023/09/09 06:25:36;;;;;;;15.40;10.40;;;;;;;;;;5060784;28;20032;-45
2023/09/09 06:28:01;;;;;;;17.42;9.98;;;;;;;;;;5059673;28;20027;-46
2023/09/09 06:30:26;;;;;;;15.10;9.70;;;;;;;;;;5058829;28;20024;-45
2023/09/09 06:32:51;;;;;;;14.97;10.00;;;;;;;;;;5063313;28;20290;-45
2023/09/09 06:35:17;;;;;;;32.27;23.57;;;;;;;;;;5065430;28;20289;-46
2023/09/09 06:37:42;;;;;;;15.90;10.53;;;;;;;;;;5065696;28;20270;-46
2023/09/09 06:40:07;;;;;;;16.63;10.30;;;;;;;;;;5064012;28;20056;-46
2023/09/09 06:42:33;;;;;;;14.27;10.35;;;;;;;;;;5064497;28;20032;-46
2023/09/09 06:44:58;;;;;;;15.80;10.27;;;;;;;;;;5061776;28;20039;-45
2023/09/09 06:47:23;;;;;;;12.20;8.85;;;;;;;;;;5064140;28;27160;-46
2023/09/09 06:49:50;;;;;;;16.40;10.03;;;;;;;;;;5063301;28;20078;-46
2023/09/09 06:52:16;;;;;;;20.35;11.55;;;;;;;;;;5062698;28;20035;-46
2023/09/09 06:54:43;;;;;;;16.92;10.52;;;;;;;;;;5056644;28;20032;-46
2023/09/09 06:57:08;;;;;;;13.63;9.63;;;;;;;;;;5059877;28;20037;-46
2023/09/09 06:59:35;;;;;;;14.87;9.50;;;;;;;;;;5060324;28;20441;-46
2023/09/09 07:02:02;;;;;;;17.92;11.38;;;;;;;;;;5062320;28;20024;-46
2023/09/09 07:04:27;;;;;;;13.10;8.82;;;;;;;;;;5059450;28;20028;-46
2023/09/09 07:06:52;;;;;;;16.30;8.80;;;;;;;;;;5068016;28;20033;-46
2023/09/09 07:09:18;;;;;;;12.80;8.73;;;;;;;;;;5062538;28;20297;-45
2023/09/09 07:11:43;;;;;;;15.38;9.15;;;;;;;;;;5063207;28;20032;-46
2023/09/09 07:14:08;;;;;;;12.93;8.10;;;;;;;;;;5067731;28;20039;-45
2023/09/09 07:16:34;;;;;;;22.10;12.70;;;;;;;;;;5065510;28;20025;-46
2023/09/09 07:19:00;;;;;;;18.85;12.60;;;;;;;;;;5061368;28;20021;-45
2023/09/09 07:21:25;;;;;;;19.20;13.35;;;;;;;;;;5060327;28;20056;-46
2023/09/09 07:23:50;;;;;;;17.85;9.45;;;;;;;;;;5065470;28;20372;-45
2023/09/09 07:26:16;;;;;;;14.87;8.97;;;;;;;;;;5061894;28;20028;-45
2023/09/09 07:28:41;;;;;;;19.73;9.32;;;;;;;;;;5064886;28;20630;-45
2023/09/09 07:31:07;;;;;;;16.07;11.10;;;;;;;;;;5062105;28;20039;-45
2023/09/09 07:33:32;;;;;;;15.60;9.03;;;;;;;;;;5067238;28;20464;-45
2023/09/09 07:35:57;;;;;;;17.95;10.38;;;;;;;;;;5064631;28;20116;-46
2023/09/09 07:38:23;;;;;;;19.67;11.10;;;;;;;;;;5067274;28;20017;-46
2023/09/09 07:40:48;;;;;;;16.83;10.40;;;;;;;;;;5059742;28;20032;-46
2023/09/09 07:43:14;;;;;;;14.45;9.40;;;;;;;;;;5059319;28;20036;-46
2023/09/09 07:45:45;;;;;;;25.25;14.55;;;;;;;;;;5068003;28;20025;-45
2023/09/09 07:48:11;;;;;;;17.73;10.85;;;;;;;;;;5058188;28;20031;-46
2023/09/09 07:50:36;;;;;;;20.27;14.03;;;;;;;;;;5064889;28;20024;-45
2023/09/09 07:53:01;;;;;;;27.75;14.90;;;;;;;;;;5061139;28;20320;-45
2023/09/09 07:55:26;;;;;;;15.40;11.13;;;;;;;;;;5065881;28;20025;-46
2023/09/09 07:57:52;;;;;;;15.67;9.50;;;;;;;;;;5065620;28;20483;-45
2023/09/09 08:00:17;;;;;;;13.83;8.93;;;;;;;;;;5065710;28;20287;-46
2023/09/09 08:02:42;;;;;;;12.07;8.97;;;;;;;;;;5065280;28;20510;-46
2023/09/09 08:05:08;;;;;;;14.10;9.00;;;;;;;;;;5062012;28;20351;-46
2023/09/09 08:07:34;;;;;;;13.13;9.25;;;;;;;;;;5064565;28;20695;-46
2023/09/09 08:09:59;;;;;;;13.85;8.18;;;;;;;;;;5066667;28;20027;-46
2023/09/09 08:12:24;;;;;;;18.05;9.05;;;;;;;;;;5062807;28;20639;-46
2023/09/09 08:15:02;;;;;;;15.50;9.03;;;;;;;;;;5059884;28;20033;-45
2023/09/09 08:17:27;;;;;;;13.48;9.07;;;;;;;;;;5059959;28;20840;-46
2023/09/09 08:19:53;;;;;;;14.73;8.80;;;;;;;;;;5054248;28;20116;-45
2023/09/09 08:22:18;;;;;;;11.45;8.85;;;;;;;;;;5052956;28;20787;-46
2023/09/09 08:24:43;;;;;;;18.07;10.63;;;;;;;;;;5052213;28;20023;-46
2023/09/09 08:27:09;;;;;;;22.67;12.03;;;;;;;;;;5064536;28;20024;-46
2023/09/09 08:29:34;;;;;;;19.58;10.93;;;;;;;;;;5061873;28;20104;-46
2023/09/09 08:31:59;;;;;;;15.90;9.67;;;;;;;;;;5060707;28;20092;-45
2023/09/09 08:34:24;;;;;;;14.55;8.93;;;;;;;;;;5062941;28;20383;-46
2023/09/09 08:36:50;;;;;;;15.00;9.80;;;;;;;;;;5056047;28;20041;-46
2023/09/09 08:39:15;;;;;;;13.03;8.87;;;;;;;;;;5061077;28;20383;-46
2023/09/09 08:41:49;;;;;;;15.07;9.70;;;;;;;;;;5060727;28;20016;-46
2023/09/09 08:44:25;;;;;;;8.50;6.13;;;;;;;;;;5060346;28;20024;-46
2023/09/09 08:46:50;;;;;;;13.73;8.68;;;;;;;;;;5062555;28;20020;-46
2023/09/09 08:49:17;;;;;;;14.32;8.23;;;;;;;;;;5059469;28;20547;-46
2023/09/09 08:51:50;;;;;;;14.85;9.10;;;;;;;;;;5061493;28;20536;-46
2023/09/09 08:54:16;;;;;;;14.02;8.45;;;;;;;;;;5059196;28;20035;-45
2023/09/09 08:56:41;;;;;;;11.05;8.35;;;;;;;;;;5056388;28;20024;-45
2023/09/09 08:59:07;;;;;;;13.52;8.15;;;;;;;;;;5050087;28;20045;-46
2023/09/09 09:01:33;;;;;;;11.70;8.23;;;;;;;;;;5056504;28;20371;-46
2023/09/09 09:03:58;;;;;;;11.82;8.60;;;;;;;;;;5064374;28;20047;-46
2023/09/09 09:06:24;;;;;;;12.45;7.85;;;;;;;;;;5058502;28;20119;-46
2023/09/09 09:08:49;;;;;;;18.83;8.43;;;;;;;;;;5054779;28;20532;-48
2023/09/09 09:11:16;;;;;;;12.02;7.90;;;;;;;;;;5063860;28;20482;-46
2023/09/09 09:13:41;;;;;;;12.05;8.25;;;;;;;;;;5053986;28;20021;-45
2023/09/09 09:16:07;;;;;;;15.17;8.20;;;;;;;;;;5058633;28;20027;-46
2023/09/09 09:18:34;;;;;;;12.30;9.23;;;;;;;;;;5060257;28;20660;-46
2023/09/09 09:21:06;;;;;;;11.93;7.72;;;;;;;;;;5061497;28;20053;-45
2023/09/09 09:23:31;;;;;;;14.50;8.02;;;;;;;;;;5057803;28;20039;-46
2023/09/09 09:25:56;;;;;;;11.85;7.32;;;;;;;;;;5054260;28;20033;-46
2023/09/09 09:28:27;;;;;;;9.97;7.37;;;;;;;;;;5064090;28;20016;-45
2023/09/09 09:30:52;;;;;;;15.35;7.40;;;;;;;;;;5065886;28;20024;-46
2023/09/09 09:33:22;;;;;;;12.70;7.18;;;;;;;;;;5058988;28;20017;-46
2023/09/09 09:35:48;;;;;;;10.80;6.72;;;;;;;;;;5063270;28;20025;-46
2023/09/09 09:38:14;;;;;;;10.45;6.80;;;;;;;;;;5059656;28;20033;-46
2023/09/09 09:40:40;;;;;;;10.95;7.28;;;;;;;;;;5057629;28;20029;-46
2023/09/09 09:43:15;;;;;;;10.00;6.70;;;;;;;;;;5058055;28;20036;-46
2023/09/09 09:45:41;;;;;;;11.48;7.22;;;;;;;;;;5062988;28;20029;-46
2023/09/09 09:48:06;;;;;;;11.47;7.20;;;;;;;;;;5058737;28;20510;-46
2023/09/09 09:50:32;;;;;;;17.20;7.60;;;;;;;;;;5057707;28;20032;-46
2023/09/09 09:53:05;;;;;;;11.27;7.50;;;;;;;;;;5052967;28;20028;-46
2023/09/09 09:55:31;;;;;;;13.40;8.05;;;;;;;;;;5062877;28;20025;-46
2023/09/09 09:57:58;;;;;;;11.95;6.78;;;;;;;;;;5059498;28;20425;-46
2023/09/09 10:00:23;;;;;;;13.43;7.55;;;;;;;;;;5061235;28;20052;-46
2023/09/09 10:02:53;;;;;;;14.23;7.50;;;;;;;;;;5054567;28;20060;-46
2023/09/09 10:05:20;;;;;;;12.88;6.90;;;;;;;;;;5054027;28;20021;-45
2023/09/09 10:07:46;;;;;;;12.95;7.05;;;;;;;;;;5055765;28;20024;-46
2023/09/09 10:10:15;;;;;;;10.55;6.13;;;;;;;;;;5052711;28;20544;-46
2023/09/09 10:12:56;;;;;;;13.60;6.75;;;;;;;;;;5058968;28;20475;-46
2023/09/09 10:15:21;;;;;;;9.20;5.85;;;;;;;;;;5059208;28;20029;-45
2023/09/09 10:17:49;;;;;;;9.45;6.20;;;;;;;;;;5062096;28;20352;-46
2023/09/09 10:20:14;;;;;;;4.88;3.72;;;;;;;;;;5058662;28;20033;-46
2023/09/09 10:22:41;;;;;;;10.60;6.20;;;;;;;;;;5063462;28;20085;-46
2023/09/09 10:25:07;;;;;;;8.98;6.05;;;;;;;;;;5064052;28;20471;-46
2023/09/09 10:27:33;;;;;;;13.15;7.00;;;;;;;;;;5060422;28;20058;-46
2023/09/09 10:30:00;;;;;;;12.68;7.03;;;;;;;;;;5065073;28;20170;-46
2023/09/09 10:32:26;;;;;;;8.25;6.00;;;;;;;;;;5060158;28;20043;-45
2023/09/09 10:34:52;;;;;;;10.00;6.28;;;;;;;;;;5059703;28;20029;-45
2023/09/09 10:37:18;;;;;;;11.80;6.53;;;;;;;;;;5059927;28;20097;-46
2023/09/09 10:39:44;;;;;;;15.95;6.57;;;;;;;;;;5059546;28;20036;-46
2023/09/09 10:42:10;;;;;;;9.38;5.88;;;;;;;;;;5056695;28;21307;-46
2023/09/09 10:44:35;;;;;;;8.32;4.72;;;;;;;;;;5061185;28;20025;-46
2023/09/09 10:47:00;;;;;;;9.07;5.03;;;;;;;;;;5057362;28;20024;-46
2023/09/09 10:49:27;;;;;;;7.60;4.50;;;;;;;;;;5052544;28;20547;-45
2023/09/09 10:51:52;;;;;;;6.68;4.60;;;;;;;;;;5047104;28;22564;-45
2023/09/09 10:54:18;;;;;;;7.15;4.50;;;;;;;;;;5064118;28;20525;-45
2023/09/09 10:56:45;;;;;;;8.30;5.00;;;;;;;;;;5066702;28;20505;-46
2023/09/09 10:59:17;;;;;;;9.68;5.15;;;;;;;;;;5062173;28;20020;-45
2023/09/09 11:01:43;;;;;;;9.63;4.72;;;;;;;;;;5067071;28;20150;-46
2023/09/09 11:04:18;;;;;;;8.80;4.95;;;;;;;;;;5060856;28;20107;-46
2023/09/09 11:06:57;;;;;;;9.52;5.20;;;;;;;;;;5063495;28;20103;-46
2023/09/09 11:09:27;;;;;;;8.50;5.38;;;;;;;;;;5057733;28;20033;-46
2023/09/09 11:11:54;;;;;;;8.13;4.65;;;;;;;;;;5064415;28;20514;-46
2023/09/09 11:14:20;;;;;;;7.15;4.93;;;;;;;;;;5061347;28;20048;-45
2023/09/09 11:16:48;;;;;;;6.33;4.53;;;;;;;;;;5051036;28;20033;-45
2023/09/09 11:19:14;;;;;;;7.55;5.10;;;;;;;;;;5055442;28;20308;-46
2023/09/09 11:21:46;;;;;;;7.97;4.72;;;;;;;;;;5065009;28;20029;-46
2023/09/09 11:24:12;;;;;;;8.38;5.20;;;;;;;;;;5064868;28;20559;-45
2023/09/09 11:26:38;;;;;;;9.02;5.88;;;;;;;;;;5068169;28;20020;-46
2023/09/09 11:29:04;;;;;;;11.30;6.22;;;;;;;;;;5065961;28;20108;-46
2023/09/09 11:31:30;;;;;;;7.70;4.55;;;;;;;;;;5065407;28;20403;-46
2023/09/09 11:33:56;;;;;;;8.20;4.75;;;;;;;;;;5063055;28;20017;-46
2023/09/09 11:36:21;;;;;;;9.18;5.20;;;;;;;;;;5060616;28;20052;-46
2023/09/09 11:38:47;;;;;;;9.33;4.63;;;;;;;;;;5065170;28;20027;-46
2023/09/09 11:41:19;;;;;;;8.63;4.78;;;;;;;;;;5066413;28;20514;-47
2023/09/09 11:43:46;;;;;;;8.50;4.28;;;;;;;;;;5070587;28;21219;-46
2023/09/09 11:46:11;;;;;;;10.25;4.60;;;;;;;;;;5066606;28;20024;-46
2023/09/09 11:48:37;;;;;;;8.75;4.93;;;;;;;;;;5060833;28;20029;-46
2023/09/09 11:51:03;;;;;;;8.77;5.23;;;;;;;;;;5063350;28;20025;-47
2023/09/09 11:53:28;;;;;;;9.48;5.38;;;;;;;;;;5057718;28;20028;-46
2023/09/09 11:55:54;;;;;;;7.68;5.28;;;;;;;;;;5068379;28;20032;-46
2023/09/09 11:58:20;;;;;;;7.03;3.22;;;;;;;;;;5060120;28;20056;-46
2023/09/09 12:00:45;;;;;;;7.60;5.20;;;;;;;;;;5064944;28;20045;-46
2023/09/09 12:03:18;;;;;;;7.22;4.57;;;;;;;;;;5059592;28;20425;-46
2023/09/09 12:05:43;;;;;;;7.65;4.05;;;;;;;;;;5065197;28;20021;-46
2023/09/09 12:08:08;;;;;;;12.73;5.45;;;;;;;;;;5058475;28;20024;-47
2023/09/09 12:10:35;;;;;;;6.88;4.68;;;;;;;;;;5063778;28;20025;-47
2023/09/09 12:13:00;;;;;;;5.50;3.92;;;;;;;;;;5063168;28;20028;-46
2023/09/09 12:15:26;;;;;;;10.07;4.88;;;;;;;;;;5061473;28;20033;-46
2023/09/09 12:17:51;;;;;;;8.35;5.03;;;;;;;;;;5060228;28;20038;-46
2023/09/09 12:20:16;;;;;;;8.30;4.50;;;;;;;;;;5061419;28;20545;-46
2023/09/09 12:22:47;;;;;;;7.95;4.93;;;;;;;;;;5067076;28;20032;-46
2023/09/09 12:25:29;;;;;;;8.73;5.68;;;;;;;;;;5061809;28;20110;-47
2023/09/09 12:27:54;;;;;;;7.75;5.97;;;;;;;;;;5062378;28;20016;-46
2023/09/09 12:30:33;;;;;;;8.17;4.93;;;;;;;;;;5069841;28;20043;-46
2023/09/09 12:33:05;;;;;;;10.48;5.65;;;;;;;;;;5064270;28;20270;-46
2023/09/09 12:35:34;;;;;;;8.15;4.95;;;;;;;;;;5065751;28;20029;-46
2023/09/09 12:37:59;;;;;;;8.90;5.50;;;;;;;;;;5056855;28;20025;-47
2023/09/09 12:40:25;;;;;;;11.02;5.68;;;;;;;;;;5066176;28;20094;-46
2023/09/09 12:42:53;;;;;;;5.87;4.87;;;;;;;;;;5060237;28;20073;-46
2023/09/09 12:45:19;;;;;;;8.32;5.07;;;;;;;;;;5063881;28;20017;-47
2023/09/09 12:47:44;;;;;;;9.40;5.60;;;;;;;;;;5066784;28;20603;-46
2023/09/09 12:50:09;;;;;;;9.07;5.10;;;;;;;;;;5063858;28;20021;-47
2023/09/09 12:52:34;;;;;;;9.87;4.77;;;;;;;;;;5065233;28;20027;-53
2023/09/09 12:55:00;;;;;;;8.67;6.10;;;;;;;;;;5066020;28;20036;-46
2023/09/09 12:57:27;;;;;;;9.40;6.20;;;;;;;;;;5061821;28;22749;-46
2023/09/09 12:59:52;;;;;;;7.40;5.22;;;;;;;;;;5058282;28;20082;-46
2023/09/09 13:02:18;;;;;;;8.70;5.47;;;;;;;;;;5064350;28;20052;-46
2023/09/09 13:04:43;;;;;;;11.43;6.10;;;;;;;;;;5063648;28;20012;-46
2023/09/09 13:07:09;;;;;;;9.10;5.73;;;;;;;;;;5062898;28;20028;-46
2023/09/09 13:09:34;;;;;;;11.25;5.38;;;;;;;;;;5060349;28;20025;-46
2023/09/09 13:12:00;;;;;;;10.00;5.23;;;;;;;;;;5064553;28;20025;-46
2023/09/09 13:14:27;;;;;;;7.80;5.37;;;;;;;;;;5064572;28;20069;-46
2023/09/09 13:16:53;;;;;;;13.63;7.90;;;;;;;;;;5058676;28;20267;-46
2023/09/09 13:19:19;;;;;;;12.02;6.45;;;;;;;;;;5062526;28;20021;-46
2023/09/09 13:21:44;;;;;;;9.52;6.05;;;;;;;;;;5063884;28;20082;-46
2023/09/09 13:24:10;;;;;;;7.23;4.60;;;;;;;;;;5062978;28;20036;-46
2023/09/09 13:26:35;;;;;;;7.50;5.20;;;;;;;;;;5057619;28;20032;-47
2023/09/09 13:29:00;;;;;;;8.70;5.10;;;;;;;;;;5060916;28;20075;-47
2023/09/09 13:31:25;;;;;;;7.60;4.50;;;;;;;;;;5063325;28;20028;-46
2023/09/09 13:33:51;;;;;;;9.17;5.13;;;;;;;;;;5067019;28;20455;-46
2023/09/09 13:36:16;;;;;;;6.83;4.70;;;;;;;;;;5066110;28;20032;-46
2023/09/09 13:38:41;;;;;;;9.20;4.83;;;;;;;;;;5064175;28;20020;-46
2023/09/09 13:41:06;;;;;;;6.93;4.87;;;;;;;;;;5063745;28;20327;-46
2023/09/09 13:43:32;;;;;;;8.27;5.53;;;;;;;;;;5059158;28;20384;-47
2023/09/09 13:45:57;;;;;;;7.60;4.43;;;;;;;;;;5063593;28;20021;-46
2023/09/09 13:48:22;;;;;;;8.73;4.80;;;;;;;;;;5063037;28;20150;-46
2023/09/09 13:50:48;;;;;;;7.33;4.73;;;;;;;;;;5066197;28;20025;-46
2023/09/09 13:53:13;;;;;;;5.57;3.45;;;;;;;;;;5065554;28;20396;-46
2023/09/09 13:55:39;;;;;;;10.00;5.70;;;;;;;;;;5066926;28;20020;-46
2023/09/09 13:58:04;;;;;;;9.90;6.93;;;;;;;;;;5064866;28;20066;-47
2023/09/09 14:00:29;;;;;;;10.37;6.70;;;;;;;;;;5060847;28;20483;-46
2023/09/09 14:02:54;;;;;;;8.43;5.23;;;;;;;;;;5064439;28;20032;-47
2023/09/09 14:05:20;;;;;;;7.77;4.87;;;;;;;;;;5066124;28;20374;-46
2023/09/09 14:07:45;;;;;;;9.50;5.03;;;;;;;;;;5065972;28;20086;-46
2023/09/09 14:10:10;;;;;;;7.07;4.73;;;;;;;;;;5052207;28;20079;-46
2023/09/09 14:12:38;;;;;;;8.47;6.17;;;;;;;;;;5056204;28;20059;-46
2023/09/09 14:15:04;;;;;;;8.00;5.35;;;;;;;;;;5062925;28;20041;-47
2023/09/09 14:17:29;;;;;;;10.48;5.13;;;;;;;;;;5055667;28;20524;-46
2023/09/09 14:19:54;;;;;;;8.67;5.00;;;;;;;;;;5058087;28;20026;-47
2023/09/09 14:22:20;;;;;;;8.50;4.63;;;;;;;;;;5058251;28;21213;-46
2023/09/09 14:24:45;;;;;;;9.17;5.83;;;;;;;;;;5063045;28;20060;-46